Time;durP1;ratioP1;P1;durP2;ratioP2;P2;SDS_P1;SDS_P2;PMS_P1;PMS_P2;Temp;Humidity;BMP_temperature;BMP_pressure;BME280_temperature;BME280_humidity;BME280_pressure;Samples;Min_cycle;Max_cycle;Signal;HPM_P1;HPM_P2
2021/05/31 00:00:58;;;;;;;8.70;8.10;;;15.30;96.10;;;;;;5001341;28;20189;-88
2021/05/31 00:03:24;;;;;;;9.33;8.53;;;15.30;96.20;;;;;;5034887;28;20175;-88
2021/05/31 00:05:49;;;;;;;8.70;8.00;;;15.30;96.30;;;;;;5035447;28;20634;-88
2021/05/31 00:08:15;;;;;;;9.23;8.43;;;15.20;96.40;;;;;;5015986;28;20202;-88
2021/05/31 00:10:42;;;;;;;10.07;9.30;;;15.10;96.40;;;;;;5035401;28;20179;-88
2021/05/31 00:13:07;;;;;;;9.20;8.40;;;15.10;96.50;;;;;;5034663;28;20622;-89
2021/05/31 00:15:33;;;;;;;9.80;8.90;;;15.20;96.70;;;;;;5017293;28;20555;-88
2021/05/31 00:18:00;;;;;;;9.23;8.43;;;15.10;96.70;;;;;;5017246;28;20193;-88
2021/05/31 00:20:26;;;;;;;9.17;8.47;;;15.10;96.80;;;;;;5034412;28;20603;-88
2021/05/31 00:22:52;;;;;;;8.53;7.90;;;15.00;96.90;;;;;;5035262;28;20444;-88
2021/05/31 00:25:18;;;;;;;9.00;8.30;;;15.00;97.10;;;;;;5034390;28;20179;-88
2021/05/31 00:27:44;;;;;;;9.80;8.90;;;15.00;97.10;;;;;;5034896;28;20432;-88
2021/05/31 00:30:11;;;;;;;8.83;8.10;;;15.00;97.20;;;;;;5033974;28;20417;-88
2021/05/31 00:32:38;;;;;;;10.20;9.20;;;15.00;97.30;;;;;;5035051;28;20196;-88
2021/05/31 00:35:06;;;;;;;9.20;8.50;;;15.00;97.20;;;;;;5017224;28;20542;-87
2021/05/31 00:37:32;;;;;;;10.37;9.50;;;14.90;97.10;;;;;;5034100;28;20972;-85
2021/05/31 00:39:58;;;;;;;9.13;8.37;;;14.90;97.00;;;;;;5034737;28;20434;-86
2021/05/31 00:42:23;;;;;;;9.63;8.73;;;14.90;97.10;;;;;;5033716;28;20428;-87
2021/05/31 00:44:49;;;;;;;8.93;8.23;;;14.80;97.30;;;;;;5034788;28;20447;-87
2021/05/31 00:47:16;;;;;;;8.83;8.13;;;14.80;97.40;;;;;;5033689;28;20191;-87
2021/05/31 00:49:43;;;;;;;9.20;8.33;;;14.70;97.40;;;;;;5034518;28;20181;-87
2021/05/31 00:52:09;;;;;;;9.20;8.40;;;14.70;97.40;;;;;;5016731;28;20400;-89
2021/05/31 00:54:35;;;;;;;12.00;8.10;;;14.60;97.30;;;;;;5034417;28;20954;-86
2021/05/31 00:57:02;;;;;;;8.77;8.17;;;14.60;97.60;;;;;;5034242;28;20463;-86
2021/05/31 00:59:28;;;;;;;8.77;7.97;;;14.60;97.40;;;;;;5033317;28;20429;-87
2021/05/31 01:01:55;;;;;;;9.00;8.20;;;14.50;97.70;;;;;;5034435;28;20419;-87
2021/05/31 01:04:21;;;;;;;8.60;7.83;;;14.50;97.80;;;;;;5033578;28;20173;-87
2021/05/31 01:07:12;;;;;;;8.83;8.13;;;14.50;97.90;;;;;;5033871;28;20432;-86
2021/05/31 01:10:07;;;;;;;8.40;7.70;;;14.50;98.10;;;;;;5010828;28;20198;-86
2021/05/31 01:13:00;;;;;;;8.27;7.57;;;14.50;98.00;;;;;;5026773;28;20431;-87
2021/05/31 01:15:31;;;;;;;9.60;8.10;;;14.40;97.80;;;;;;5012286;28;20465;-87
2021/05/31 01:18:20;;;;;;;10.33;8.63;;;14.40;97.90;;;;;;5014492;28;20441;-87
2021/05/31 01:21:10;;;;;;;8.60;7.70;;;14.40;97.90;;;;;;5013921;28;20417;-87
2021/05/31 01:23:38;;;;;;;8.37;7.50;;;14.40;98.00;;;;;;4996492;28;20778;-87
2021/05/31 01:26:17;;;;;;;8.20;7.60;;;14.30;98.20;;;;;;5012807;28;20466;-87
2021/05/31 01:29:08;;;;;;;8.57;7.87;;;14.30;98.20;;;;;;5012935;28;20766;-87
2021/05/31 01:31:48;;;;;;;8.93;8.13;;;14.30;98.30;;;;;;5013395;28;20483;-87
2021/05/31 01:34:26;;;;;;;9.00;8.03;;;14.30;98.40;;;;;;5012228;28;20412;-89
2021/05/31 01:36:59;;;;;;;8.97;8.07;;;14.30;98.40;;;;;;5014052;28;20893;-88
2021/05/31 01:39:28;;;;;;;9.77;8.60;;;14.20;98.40;;;;;;5013328;28;20404;-88
2021/05/31 01:41:55;;;;;;;9.57;8.87;;;14.20;98.40;;;;;;5012431;28;20446;-88
2021/05/31 01:44:21;;;;;;;8.53;7.83;;;14.20;98.20;;;;;;5011920;28;20411;-86
2021/05/31 01:46:49;;;;;;;9.03;8.33;;;14.20;98.30;;;;;;5013686;28;20421;-85
2021/05/31 01:49:15;;;;;;;9.20;8.40;;;14.20;98.40;;;;;;5013054;28;20417;-86
2021/05/31 01:51:42;;;;;;;9.27;8.47;;;14.20;98.50;;;;;;5013597;28;20417;-86
2021/05/31 01:54:10;;;;;;;8.67;7.97;;;14.10;98.50;;;;;;5013656;28;20518;-86
2021/05/31 01:56:36;;;;;;;8.43;7.73;;;14.10;98.40;;;;;;5012819;28;20451;-86
2021/05/31 01:59:04;;;;;;;9.43;8.50;;;14.10;98.30;;;;;;5012259;28;20431;-86
2021/05/31 02:01:34;;;;;;;8.93;8.07;;;14.10;98.20;;;;;;5011644;28;20427;-86
2021/05/31 02:04:00;;;;;;;9.40;8.40;;;14.00;98.20;;;;;;5013438;28;20412;-86
2021/05/31 02:06:26;;;;;;;9.13;8.43;;;14.00;98.30;;;;;;5012563;28;20760;-86
2021/05/31 02:08:52;;;;;;;9.20;8.27;;;14.00;98.40;;;;;;5013350;28;20451;-88
2021/05/31 02:11:44;;;;;;;8.90;8.10;;;14.00;98.50;;;;;;5012698;28;20458;-88
2021/05/31 02:14:19;;;;;;;9.83;8.63;;;13.90;98.60;;;;;;5013497;28;20494;-88
2021/05/31 02:16:58;;;;;;;8.43;7.77;;;13.90;98.60;;;;;;5032115;28;20468;-88
2021/05/31 02:19:26;;;;;;;9.63;8.83;;;13.90;98.70;;;;;;5014721;28;20405;-89
2021/05/31 02:21:54;;;;;;;9.77;8.73;;;13.90;98.60;;;;;;5032783;28;20476;-88
2021/05/31 02:24:21;;;;;;;8.97;8.17;;;13.80;98.60;;;;;;5032232;28;20419;-89
2021/05/31 02:26:48;;;;;;;9.60;8.70;;;13.80;98.70;;;;;;5015129;28;20772;-87
2021/05/31 02:29:14;;;;;;;11.20;9.30;;;13.80;98.90;;;;;;5032871;28;20431;-89
2021/05/31 02:31:42;;;;;;;9.20;8.40;;;13.80;99.00;;;;;;5014532;28;20766;-86
2021/05/31 02:34:09;;;;;;;10.10;9.20;;;13.80;99.00;;;;;;5014796;28;20416;-86
2021/05/31 02:36:35;;;;;;;9.87;9.00;;;13.70;98.90;;;;;;5014376;28;21139;-87
2021/05/31 02:39:01;;;;;;;9.23;8.30;;;13.70;98.90;;;;;;5032601;28;20760;-86
2021/05/31 02:41:27;;;;;;;9.27;8.50;;;13.70;98.70;;;;;;5031970;28;20413;-87
2021/05/31 02:43:52;;;;;;;8.93;8.23;;;13.70;98.90;;;;;;5032251;28;20168;-87
2021/05/31 02:46:18;;;;;;;8.97;8.10;;;13.70;98.80;;;;;;4998243;28;20518;-87
2021/05/31 02:48:44;;;;;;;9.83;9.03;;;13.60;98.60;;;;;;5014633;28;20632;-86
2021/05/31 02:51:10;;;;;;;9.03;8.23;;;13.70;98.70;;;;;;5032496;28;20573;-87
2021/05/31 02:53:35;;;;;;;9.43;8.63;;;13.60;98.80;;;;;;5031962;28;20638;-87
2021/05/31 02:56:02;;;;;;;9.57;8.77;;;13.60;98.80;;;;;;5032467;28;20215;-86
2021/05/31 02:58:28;;;;;;;9.33;8.53;;;13.60;98.80;;;;;;5014241;28;20181;-87
2021/05/31 03:00:54;;;;;;;9.30;8.60;;;13.60;98.80;;;;;;5014638;28;20464;-87
2021/05/31 03:03:21;;;;;;;9.23;8.47;;;13.60;98.80;;;;;;5014197;28;20451;-87
2021/05/31 03:05:46;;;;;;;9.70;8.70;;;13.50;98.70;;;;;;5014506;28;20182;-86
2021/05/31 03:08:12;;;;;;;9.40;8.70;;;13.50;98.80;;;;;;5032345;28;20945;-86
2021/05/31 03:10:38;;;;;;;10.10;9.20;;;13.40;98.60;;;;;;5031790;28;20649;-87
2021/05/31 03:13:04;;;;;;;10.23;9.17;;;13.40;98.50;;;;;;5032828;28;20181;-87
2021/05/31 03:15:31;;;;;;;9.30;8.50;;;13.40;98.70;;;;;;5031419;28;20461;-87
2021/05/31 03:17:57;;;;;;;9.40;8.50;;;13.40;98.80;;;;;;5032252;28;20414;-87
2021/05/31 03:20:26;;;;;;;9.00;8.20;;;13.40;98.90;;;;;;5014019;28;20414;-87
2021/05/31 03:22:52;;;;;;;9.40;8.60;;;13.40;99.10;;;;;;5032225;28;20417;-87
2021/05/31 03:25:18;;;;;;;9.07;8.37;;;13.30;99.00;;;;;;5031955;28;20504;-88
2021/05/31 03:27:44;;;;;;;10.57;9.30;;;13.40;99.10;;;;;;5014539;28;20453;-87
2021/05/31 03:30:12;;;;;;;10.60;9.70;;;13.30;99.10;;;;;;5032229;28;20781;-87
2021/05/31 03:32:38;;;;;;;9.23;8.37;;;13.30;99.00;;;;;;5013907;28;20814;-87
2021/05/31 03:35:06;;;;;;;8.93;8.13;;;13.30;99.10;;;;;;5014563;28;20773;-87
2021/05/31 03:37:31;;;;;;;9.73;8.83;;;13.20;99.10;;;;;;5031345;28;20487;-87
2021/05/31 03:39:57;;;;;;;9.83;8.93;;;13.30;99.30;;;;;;5032082;28;20421;-86
2021/05/31 03:42:23;;;;;;;10.33;9.43;;;13.20;99.20;;;;;;5014759;28;20205;-87
2021/05/31 03:44:49;;;;;;;8.67;7.70;;;13.20;99.10;;;;;;5035721;28;20310;-87
2021/05/31 03:47:14;;;;;;;11.90;11.10;;;13.20;99.30;;;;;;5035694;28;20179;-87
2021/05/31 03:49:40;;;;;;;9.17;8.37;;;13.20;99.40;;;;;;5034996;28;20174;-87
2021/05/31 03:52:06;;;;;;;9.80;8.80;;;13.20;99.50;;;;;;5035686;28;20258;-86
2021/05/31 03:54:32;;;;;;;10.83;10.03;;;13.20;99.40;;;;;;5034682;28;20176;-87
2021/05/31 03:56:57;;;;;;;10.13;9.37;;;13.10;99.40;;;;;;5035407;28;20973;-86
2021/05/31 03:59:27;;;;;;;10.53;9.53;;;13.10;99.40;;;;;;5035032;28;20182;-87
2021/05/31 04:01:53;;;;;;;14.97;11.20;;;13.20;99.60;;;;;;5035143;28;20189;-86
2021/05/31 04:04:20;;;;;;;9.10;8.30;;;13.20;99.60;;;;;;5035509;28;20445;-86
2021/05/31 04:11:57;;;;;;;10.30;9.40;;;13.10;99.70;;;;;;5035453;28;20163;-87
2021/05/31 04:14:23;;;;;;;12.20;10.90;;;13.10;99.80;;;;;;5034424;28;20448;-86
2021/05/31 04:16:51;;;;;;;11.83;10.80;;;13.10;99.90;;;;;;5035384;28;20485;-86
2021/05/31 04:19:19;;;;;;;12.40;11.10;;;13.20;99.90;;;;;;5017487;28;20424;-86
2021/05/31 04:21:48;;;;;;;16.17;14.10;;;13.20;99.90;;;;;;5034141;28;20975;-86
2021/05/31 04:24:14;;;;;;;13.67;12.37;;;13.20;99.90;;;;;;5017314;28;20457;-86
2021/05/31 04:26:41;;;;;;;13.60;12.30;;;13.20;99.90;;;;;;5016760;28;20427;-87
2021/05/31 04:29:09;;;;;;;13.60;12.20;;;13.20;99.90;;;;;;5035646;28;20420;-86
2021/05/31 04:31:36;;;;;;;11.73;10.73;;;13.30;99.90;;;;;;5034282;28;20949;-86
2021/05/31 04:34:04;;;;;;;10.50;9.60;;;13.30;99.90;;;;;;5016937;28;20760;-87
2021/05/31 04:36:31;;;;;;;11.90;10.97;;;13.30;99.90;;;;;;5034107;28;20456;-86
2021/05/31 04:38:58;;;;;;;11.50;10.70;;;13.30;99.90;;;;;;5017034;28;20416;-87
2021/05/31 04:41:24;;;;;;;10.60;8.27;;;13.40;99.60;;;;;;5016471;28;20449;-88
2021/05/31 04:43:50;;;;;;;12.03;9.67;;;13.30;99.50;;;;;;5016968;28;20424;-87
2021/05/31 04:46:15;;;;;;;12.47;10.30;;;13.40;99.50;;;;;;5034670;28;20417;-87
2021/05/31 04:48:41;;;;;;;9.03;8.30;;;13.40;99.40;;;;;;5034122;28;20183;-88
2021/05/31 04:51:07;;;;;;;12.00;11.00;;;13.50;99.50;;;;;;5016886;28;20642;-87
2021/05/31 04:53:33;;;;;;;11.10;9.97;;;13.50;99.50;;;;;;5033465;28;20175;-88
2021/05/31 04:56:04;;;;;;;14.77;10.10;;;13.50;99.40;;;;;;5034434;28;20207;-87
2021/05/31 04:58:30;;;;;;;11.90;10.80;;;13.50;99.50;;;;;;5034060;28;20426;-87
2021/05/31 05:00:56;;;;;;;10.93;9.93;;;13.50;99.50;;;;;;5034404;28;20422;-87
2021/05/31 05:03:22;;;;;;;12.50;11.43;;;13.50;99.70;;;;;;5034179;28;20199;-87
2021/05/31 05:05:49;;;;;;;10.40;9.40;;;13.50;99.80;;;;;;5033042;28;20472;-86
2021/05/31 05:08:15;;;;;;;13.73;12.63;;;13.50;99.70;;;;;;5016282;28;20180;-87
2021/05/31 05:10:41;;;;;;;12.97;11.67;;;13.60;99.70;;;;;;5015992;28;20926;-87
2021/05/31 05:13:08;;;;;;;12.77;10.43;;;13.60;99.50;;;;;;5034136;28;20416;-86
2021/05/31 05:15:34;;;;;;;12.57;11.37;;;13.60;99.60;;;;;;5033200;28;20458;-87
2021/05/31 05:18:01;;;;;;;12.33;10.60;;;13.60;99.40;;;;;;5033989;28;20437;-87
2021/05/31 05:20:29;;;;;;;12.83;10.50;;;13.60;99.40;;;;;;4999258;28;20469;-84
2021/05/31 05:22:56;;;;;;;12.47;11.23;;;13.60;99.50;;;;;;5016163;28;20442;-84
2021/05/31 05:25:22;;;;;;;10.60;9.60;;;13.60;99.80;;;;;;5034121;28;20439;-89
2021/05/31 05:27:49;;;;;;;11.53;10.43;;;13.70;99.90;;;;;;5019023;28;20420;-89
2021/05/31 05:30:18;;;;;;;11.30;9.93;;;13.80;99.90;;;;;;5047116;28;20453;-90
2021/05/31 05:32:48;;;;;;;13.30;12.13;;;13.80;99.70;;;;;;5044855;28;20451;-89
2021/05/31 05:35:25;;;;;;;10.13;9.13;;;13.90;99.60;;;;;;5025401;28;20430;-88
2021/05/31 05:48:07;;;;;;;10.53;9.60;;;15.60;98.30;;;;;;5016049;28;20428;-90
2021/05/31 05:50:33;;;;;;;11.73;10.63;;;15.90;97.20;;;;;;5033126;28;20808;-89
2021/05/31 05:52:59;;;;;;;12.47;9.80;;;15.90;96.50;;;;;;5033601;28;20414;-88
2021/05/31 05:55:25;;;;;;;11.60;10.30;;;15.70;95.80;;;;;;5033295;28;20172;-87
2021/05/31 05:57:50;;;;;;;10.53;9.63;;;15.70;96.70;;;;;;4998423;28;20667;-83
2021/05/31 06:00:21;;;;;;;11.60;10.60;;;15.80;96.20;;;;;;5015531;28;20270;-84
2021/05/31 06:02:47;;;;;;;14.73;13.33;;;15.60;96.00;;;;;;5032685;28;20470;-83
2021/05/31 06:05:14;;;;;;;12.23;10.20;;;15.50;96.10;;;;;;5015163;28;20458;-83
2021/05/31 06:07:40;;;;;;;15.30;14.00;;;15.30;96.40;;;;;;5014364;28;20412;-84
2021/05/31 06:10:07;;;;;;;13.93;12.70;;;15.30;96.60;;;;;;5015559;28;20413;-84
2021/05/31 06:12:32;;;;;;;31.93;21.77;;;15.40;97.20;;;;;;5014524;28;20174;-83
2021/05/31 06:14:58;;;;;;;14.77;13.57;;;15.40;98.00;;;;;;5015113;28;20461;-83
2021/05/31 06:17:24;;;;;;;12.47;11.30;;;15.60;97.10;;;;;;5032937;28;20198;-83
2021/05/31 06:19:49;;;;;;;72.30;46.30;;;15.60;96.70;;;;;;5031916;28;20201;-82
2021/05/31 06:22:15;;;;;;;55.83;30.03;;;15.80;97.80;;;;;;5015371;28;20177;-88
2021/05/31 06:24:43;;;;;;;15.37;13.80;;;16.20;96.90;;;;;;5032203;28;20189;-86
2021/05/31 06:27:10;;;;;;;31.43;21.73;;;16.40;95.90;;;;;;5032871;28;20211;-88
2021/05/31 06:29:36;;;;;;;14.47;11.07;;;16.60;96.00;;;;;;5032407;28;20423;-83
2021/05/31 06:32:02;;;;;;;166.50;106.13;;;16.80;95.90;;;;;;5032480;28;20432;-87
2021/05/31 06:34:28;;;;;;;53.07;36.23;;;16.90;95.60;;;;;;5032701;28;20467;-86
2021/05/31 06:36:54;;;;;;;22.10;16.53;;;17.10;95.30;;;;;;5032013;28;20599;-85
2021/05/31 06:39:21;;;;;;;40.27;27.13;;;17.30;95.00;;;;;;5015124;28;20217;-86
2021/05/31 06:41:47;;;;;;;36.30;26.23;;;17.50;94.70;;;;;;5031965;28;20438;-86
2021/05/31 06:44:13;;;;;;;22.23;16.47;;;17.60;94.30;;;;;;5032573;28;20427;-86
2021/05/31 06:46:38;;;;;;;26.57;19.30;;;17.80;94.10;;;;;;5014347;28;20413;-86
2021/05/31 06:49:04;;;;;;;15.17;13.57;;;18.00;93.50;;;;;;5032514;28;20221;-86
2021/05/31 06:51:30;;;;;;;22.20;19.03;;;18.10;93.10;;;;;;5032095;28;20178;-88
2021/05/31 06:53:56;;;;;;;15.70;14.20;;;18.30;93.20;;;;;;5032503;28;20180;-86
2021/05/31 06:56:23;;;;;;;17.70;14.90;;;18.40;93.20;;;;;;5014784;28;20453;-85
2021/05/31 06:58:50;;;;;;;20.27;16.50;;;18.60;93.20;;;;;;5014214;28;20188;-86
2021/05/31 07:01:16;;;;;;;18.33;16.30;;;18.70;93.00;;;;;;5032198;28;20893;-86
2021/05/31 07:03:42;;;;;;;18.83;14.70;;;18.80;92.40;;;;;;5014419;28;20467;-84
2021/05/31 07:06:08;;;;;;;19.30;15.50;;;18.90;92.60;;;;;;5014734;28;20428;-87
2021/05/31 07:08:34;;;;;;;15.83;12.73;;;19.00;92.00;;;;;;5031790;28;20193;-87
2021/05/31 07:11:03;;;;;;;22.40;17.23;;;19.10;91.70;;;;;;5014665;28;20304;-86
2021/05/31 07:13:30;;;;;;;16.60;13.20;;;19.20;91.30;;;;;;5014663;28;20421;-86
2021/05/31 07:15:56;;;;;;;17.97;15.87;;;19.30;91.10;;;;;;5031427;28;20477;-86
2021/05/31 07:18:24;;;;;;;16.00;14.37;;;19.50;91.60;;;;;;5034825;28;20905;-86
2021/05/31 07:20:52;;;;;;;14.43;12.90;;;19.50;91.20;;;;;;5035327;28;20441;-87
2021/05/31 07:23:19;;;;;;;15.40;13.90;;;19.60;90.90;;;;;;5018488;28;20431;-86
2021/05/31 07:25:45;;;;;;;28.77;21.80;;;19.70;91.20;;;;;;5035368;28;20870;-85
2021/05/31 07:28:12;;;;;;;28.83;22.13;;;19.70;90.70;;;;;;5018335;28;20413;-86
2021/05/31 07:30:38;;;;;;;15.37;13.87;;;19.90;90.50;;;;;;5017740;28;20764;-86
2021/05/31 07:33:09;;;;;;;13.87;12.33;;;19.90;90.60;;;;;;5035886;28;20504;-86
2021/05/31 07:35:35;;;;;;;12.87;11.43;;;20.00;90.90;;;;;;5035360;28;20167;-86
2021/05/31 07:38:00;;;;;;;13.97;12.60;;;20.10;90.90;;;;;;5018243;28;20432;-86
2021/05/31 07:40:27;;;;;;;11.93;10.87;;;20.10;90.10;;;;;;5035722;28;20175;-85
2021/05/31 07:42:53;;;;;;;12.07;11.07;;;20.20;89.00;;;;;;5000887;28;20186;-85
2021/05/31 07:45:19;;;;;;;9.10;8.40;;;20.20;90.30;;;;;;5035775;28;21024;-84
2021/05/31 07:47:46;;;;;;;9.20;8.50;;;20.30;89.40;;;;;;5017315;28;20550;-86
2021/05/31 07:50:14;;;;;;;8.60;8.00;;;20.10;88.40;;;;;;5018186;28;20425;-86
2021/05/31 07:52:40;;;;;;;8.83;8.20;;;20.00;88.70;;;;;;5035087;28;20414;-87
2021/05/31 07:55:10;;;;;;;8.83;8.13;;;19.90;86.60;;;;;;5001411;28;20417;-86
2021/05/31 07:57:37;;;;;;;8.50;7.80;;;19.90;88.80;;;;;;5016926;28;20459;-86
2021/05/31 08:00:05;;;;;;;10.20;9.30;;;19.80;87.50;;;;;;5017454;28;20413;-87
2021/05/31 08:02:31;;;;;;;11.53;10.53;;;19.90;89.30;;;;;;5035404;28;20409;-87
2021/05/31 08:04:57;;;;;;;13.93;11.20;;;20.10;89.10;;;;;;5000771;28;20829;-84
2021/05/31 08:07:23;;;;;;;46.17;39.23;;;20.20;89.30;;;;;;5035323;28;20178;-83
2021/05/31 08:09:48;;;;;;;41.20;32.83;;;20.40;87.80;;;;;;5036468;28;20174;-85
2021/05/31 08:12:14;;;;;;;12.60;11.57;;;20.60;86.20;;;;;;5035252;28;20178;-86
2021/05/31 08:14:40;;;;;;;8.97;8.10;;;20.70;85.50;;;;;;5016682;28;20178;-86
2021/05/31 08:17:06;;;;;;;9.20;8.37;;;20.80;84.60;;;;;;5035261;28;20464;-85
2021/05/31 08:19:33;;;;;;;7.90;7.20;;;20.90;81.60;;;;;;5035159;28;20174;-84
2021/05/31 08:21:59;;;;;;;6.93;6.40;;;20.70;79.20;;;;;;5000463;28;20451;-84
2021/05/31 08:24:26;;;;;;;9.17;8.33;;;20.80;83.60;;;;;;5017674;28;20496;-86
2021/05/31 08:26:52;;;;;;;8.53;7.83;;;20.90;85.30;;;;;;5016854;28;20466;-86
2021/05/31 08:29:19;;;;;;;8.47;7.67;;;21.00;84.10;;;;;;5033710;28;20417;-85
2021/05/31 08:31:45;;;;;;;10.60;9.50;;;21.20;83.30;;;;;;5016288;28;20787;-86
2021/05/31 08:34:11;;;;;;;7.70;7.03;;;21.30;84.70;;;;;;5017160;28;20409;-85
2021/05/31 08:36:37;;;;;;;9.63;9.03;;;21.50;84.30;;;;;;5034469;28;20453;-85
2021/05/31 08:39:04;;;;;;;9.07;8.13;;;21.60;84.40;;;;;;5017273;28;20524;-85
2021/05/31 08:41:29;;;;;;;12.00;10.70;;;21.70;83.20;;;;;;5034936;28;20409;-85
2021/05/31 08:43:56;;;;;;;8.77;8.13;;;21.80;82.50;;;;;;5034186;28;20514;-85
2021/05/31 08:46:22;;;;;;;9.73;9.03;;;21.90;80.10;;;;;;5034720;28;20171;-85
2021/05/31 08:48:47;;;;;;;7.93;7.33;;;21.80;79.30;;;;;;5034073;28;20462;-85
2021/05/31 08:51:17;;;;;;;9.93;9.23;;;21.80;80.60;;;;;;5034699;28;20509;-85
2021/05/31 08:53:44;;;;;;;9.53;8.80;;;21.70;76.90;;;;;;5033937;28;20166;-85
2021/05/31 08:56:10;;;;;;;9.13;8.33;;;21.70;78.60;;;;;;5016749;28;20789;-86
2021/05/31 08:58:35;;;;;;;10.60;9.50;;;21.70;81.10;;;;;;5034057;28;20413;-86
2021/05/31 09:01:02;;;;;;;17.80;16.00;;;21.90;81.20;;;;;;5015933;28;20409;-86
2021/05/31 09:03:29;;;;;;;31.87;26.23;;;22.00;80.40;;;;;;5034401;28;20217;-86
2021/05/31 09:06:00;;;;;;;19.33;16.33;;;22.00;80.60;;;;;;5016100;28;20409;-88
2021/05/31 09:08:26;;;;;;;45.97;40.10;;;21.90;82.70;;;;;;5016790;28;20402;-86
2021/05/31 09:11:03;;;;;;;20.07;18.07;;;21.90;83.40;;;;;;5015862;28;20410;-87
2021/05/31 09:13:40;;;;;;;44.83;40.03;;;22.00;79.10;;;;;;5016946;28;20403;-86
2021/05/31 09:16:39;;;;;;;45.70;37.20;;;22.10;79.00;;;;;;5033888;28;20461;-85
2021/05/31 09:19:08;;;;;;;25.47;12.90;;;22.30;76.50;;;;;;5010828;28;20437;-85
2021/05/31 09:21:39;;;;;;;28.90;12.57;;;22.40;77.70;;;;;;5033603;28;20409;-85
2021/05/31 09:24:19;;;;;;;15.77;8.20;;;22.60;76.70;;;;;;5033596;28;20424;-84
2021/05/31 09:26:57;;;;;;;9.77;8.53;;;22.70;75.30;;;;;;5015684;28;20393;-84
2021/05/31 09:29:23;;;;;;;10.30;8.23;;;22.90;77.20;;;;;;5015998;28;20478;-85
2021/05/31 09:32:07;;;;;;;16.13;8.80;;;23.00;75.40;;;;;;5033174;28;20417;-86
2021/05/31 09:34:33;;;;;;;9.87;8.60;;;23.30;75.50;;;;;;5016279;28;20512;-85
2021/05/31 09:37:02;;;;;;;8.43;7.80;;;23.40;75.20;;;;;;5015407;28;20508;-86
2021/05/31 09:39:36;;;;;;;7.40;6.80;;;23.50;73.20;;;;;;5033706;28;20816;-86
2021/05/31 09:42:01;;;;;;;8.50;7.80;;;23.50;69.90;;;;;;5032839;28;20939;-85
2021/05/31 09:44:28;;;;;;;8.30;7.70;;;23.50;71.10;;;;;;5033446;28;20535;-85
2021/05/31 09:46:54;;;;;;;8.07;7.00;;;23.60;72.40;;;;;;5032963;28;20531;-86
2021/05/31 09:49:22;;;;;;;10.37;9.63;;;23.80;70.80;;;;;;5015931;28;20412;-85
2021/05/31 09:52:02;;;;;;;8.50;7.80;;;23.80;68.00;;;;;;5015197;28;20178;-86
2021/05/31 09:54:39;;;;;;;236.90;184.23;;;24.00;69.60;;;;;;5033297;28;20416;-85
2021/05/31 09:57:27;;;;;;;42.00;33.20;;;24.10;69.30;;;;;;5032683;28;20457;-85
2021/05/31 09:59:56;;;;;;;9.57;8.47;;;24.20;68.00;;;;;;5015140;28;20917;-80
2021/05/31 10:02:43;;;;;;;8.23;7.37;;;24.20;67.40;;;;;;5033138;28;20433;-78
2021/05/31 10:08:03;;;;;;;8.37;7.60;;;24.00;64.40;;;;;;5032580;28;20416;-78
2021/05/31 10:10:30;;;;;;;8.60;7.80;;;23.90;67.90;;;;;;5032903;28;20482;-78
2021/05/31 10:12:57;;;;;;;7.47;6.87;;;23.90;65.30;;;;;;5032241;28;20458;-78
2021/05/31 10:15:31;;;;;;;8.93;8.20;;;23.50;64.60;;;;;;5014924;28;20455;-78
2021/05/31 10:17:59;;;;;;;6.97;6.37;;;23.20;64.30;;;;;;5032391;28;20483;-83
2021/05/31 10:20:27;;;;;;;9.27;8.60;;;23.20;65.50;;;;;;5032841;28;20416;-78
2021/05/31 10:22:54;;;;;;;10.40;9.57;;;23.30;66.30;;;;;;5031880;28;20415;-78
2021/05/31 10:25:21;;;;;;;5.60;5.20;;;23.20;63.90;;;;;;5032815;28;20425;-78
2021/05/31 10:27:51;;;;;;;6.63;6.03;;;23.10;64.30;;;;;;5031484;28;20881;-78
2021/05/31 10:30:19;;;;;;;7.17;6.67;;;23.20;63.30;;;;;;5032445;28;20496;-78
2021/05/31 10:32:44;;;;;;;6.80;6.27;;;23.10;63.50;;;;;;5032056;28;20452;-80
2021/05/31 10:35:19;;;;;;;6.77;6.27;;;23.30;63.80;;;;;;5031910;28;20433;-78
2021/05/31 10:37:57;;;;;;;9.13;8.33;;;23.40;63.40;;;;;;5031792;28;20288;-78
2021/05/31 10:40:34;;;;;;;19.90;17.83;;;23.60;62.60;;;;;;5032615;28;20436;-78
2021/05/31 10:43:06;;;;;;;24.00;20.20;;;23.70;63.50;;;;;;5032155;28;20405;-78
2021/05/31 10:45:32;;;;;;;7.80;7.37;;;23.80;60.70;;;;;;5032843;28;20393;-78
2021/05/31 10:48:17;;;;;;;7.13;6.73;;;23.90;59.70;;;;;;5031759;28;20437;-79
2021/05/31 10:50:51;;;;;;;7.07;6.60;;;23.90;59.80;;;;;;5032585;28;20481;-80
2021/05/31 10:53:20;;;;;;;7.60;7.10;;;23.90;59.00;;;;;;5032058;28;20411;-81
2021/05/31 10:56:07;;;;;;;6.00;5.70;;;23.80;60.50;;;;;;5031938;28;20460;-81
2021/05/31 10:58:39;;;;;;;6.10;5.70;;;23.60;56.80;;;;;;5032029;28;20920;-80
2021/05/31 11:01:08;;;;;;;6.43;5.90;;;23.70;60.10;;;;;;5031948;28;20895;-80
2021/05/31 11:03:50;;;;;;;8.33;7.83;;;23.70;58.80;;;;;;5032619;28;20414;-80
2021/05/31 11:06:22;;;;;;;7.57;6.97;;;23.80;60.70;;;;;;5032396;28;20417;-80
2021/05/31 11:08:52;;;;;;;6.63;6.23;;;23.80;57.80;;;;;;5031886;28;20400;-81
2021/05/31 11:11:26;;;;;;;8.87;8.17;;;23.80;59.30;;;;;;5032387;28;20409;-80
2021/05/31 11:13:53;;;;;;;6.60;6.10;;;23.90;58.90;;;;;;5031599;28;20427;-81
2021/05/31 11:16:20;;;;;;;6.70;6.30;;;24.00;59.10;;;;;;5010715;28;20957;-80
2021/05/31 11:18:47;;;;;;;8.90;8.40;;;24.00;59.60;;;;;;5017775;28;20433;-81
2021/05/31 11:21:28;;;;;;;9.50;7.13;;;24.10;59.60;;;;;;5027855;28;20938;-83
2021/05/31 11:24:09;;;;;;;6.67;6.20;;;24.10;60.20;;;;;;5030472;28;20429;-84
2021/05/31 11:26:38;;;;;;;107.13;86.60;;;24.10;60.40;;;;;;5023473;28;20433;-83
2021/05/31 11:29:10;;;;;;;29.17;26.33;;;24.30;57.00;;;;;;5019681;28;20230;-96
2021/05/31 11:31:38;;;;;;;8.63;7.83;;;24.30;58.90;;;;;;5011796;28;20422;-91
2021/05/31 11:34:19;;;;;;;6.67;6.17;;;24.30;58.50;;;;;;5020189;28;20771;-94
2021/05/31 11:36:48;;;;;;;8.50;7.80;;;24.30;59.90;;;;;;5012328;28;20450;-93
2021/05/31 11:39:20;;;;;;;8.47;7.87;;;24.30;59.90;;;;;;5028886;28;20735;-93
2021/05/31 11:41:47;;;;;;;9.00;8.43;;;24.00;59.00;;;;;;5030045;28;20170;-92
2021/05/31 11:44:20;;;;;;;8.00;7.20;;;24.00;59.70;;;;;;5016503;28;20512;-93
2021/05/31 11:47:03;;;;;;;9.03;8.43;;;24.20;62.30;;;;;;5031431;28;20503;-95
2021/05/31 11:49:35;;;;;;;7.60;7.00;;;24.50;62.00;;;;;;5031768;28;20175;-94
2021/05/31 11:52:10;;;;;;;8.23;7.57;;;24.70;62.60;;;;;;5032180;28;20405;-95
2021/05/31 11:54:41;;;;;;;7.27;6.87;;;25.00;64.00;;;;;;5035069;28;20412;-94
2021/05/31 11:57:55;;;;;;;7.50;6.80;;;25.20;61.70;;;;;;5039295;28;20449;-96
2021/05/31 12:00:48;;;;;;;9.70;9.10;;;25.50;60.50;;;;;;5027772;28;20460;-95
2021/05/31 12:03:22;;;;;;;9.50;8.73;;;25.60;61.10;;;;;;5036142;28;20487;-95
2021/05/31 12:06:03;;;;;;;9.00;8.40;;;25.80;59.10;;;;;;5039040;28;20759;-95
2021/05/31 12:08:31;;;;;;;8.23;7.70;;;25.90;58.70;;;;;;5035235;28;20488;-94
2021/05/31 12:11:07;;;;;;;8.03;7.40;;;25.80;56.60;;;;;;5034923;28;20413;-94
2021/05/31 12:16:47;;;;;;;7.53;6.93;;;25.70;59.50;;;;;;5040618;28;20479;-96
2021/05/31 12:19:31;;;;;;;8.90;8.20;;;25.70;58.60;;;;;;5039701;28;20424;-94
2021/05/31 12:22:01;;;;;;;9.47;8.67;;;25.80;60.10;;;;;;5037419;28;20491;-95
2021/05/31 12:24:54;;;;;;;7.43;6.70;;;25.60;56.80;;;;;;5038162;28;20436;-94
2021/05/31 12:27:54;;;;;;;;;;;;;;;;;;;;;
2021/05/31 12:30:32;;;;;;;8.17;7.57;;;25.40;59.30;;;;;;5055799;28;20408;-94
2021/05/31 12:33:13;;;;;;;8.30;7.70;;;25.50;60.70;;;;;;5038394;28;20397;-94
2021/05/31 12:36:08;;;;;;;8.80;8.20;;;25.60;59.90;;;;;;5038495;28;20759;-96
2021/05/31 12:41:56;;;;;;;7.33;6.73;;;25.80;56.40;;;;;;5012627;28;20417;-94
2021/05/31 12:44:26;;;;;;;7.17;6.70;;;25.90;56.30;;;;;;5037326;28;20434;-93
2021/05/31 12:47:13;;;;;;;8.57;7.97;;;25.60;55.30;;;;;;5037652;28;20758;-94
2021/05/31 12:49:49;;;;;;;8.90;8.17;;;25.40;57.30;;;;;;5038438;28;20396;-94
2021/05/31 12:52:29;;;;;;;7.30;6.80;;;25.50;57.80;;;;;;5020881;28;20515;-94
2021/05/31 12:55:19;;;;;;;7.57;7.17;;;25.60;59.60;;;;;;5038271;28;20404;-94
2021/05/31 12:57:52;;;;;;;7.30;6.80;;;25.70;59.10;;;;;;5037759;28;20479;-93
2021/05/31 13:00:34;;;;;;;8.23;7.63;;;25.70;55.90;;;;;;5038604;28;20499;-92
2021/05/31 13:03:03;;;;;;;7.47;6.77;;;25.70;56.70;;;;;;5037044;28;20491;-94
2021/05/31 13:05:47;;;;;;;7.07;6.50;;;25.80;57.80;;;;;;5037168;28;20804;-93
2021/05/31 13:08:16;;;;;;;6.50;6.10;;;25.90;57.80;;;;;;5036648;28;20408;-93
2021/05/31 13:10:48;;;;;;;8.30;7.70;;;26.00;59.90;;;;;;5054580;28;20420;-93
2021/05/31 13:13:38;;;;;;;10.10;9.30;;;26.00;58.30;;;;;;5036730;28;20384;-94
2021/05/31 13:16:10;;;;;;;8.20;7.60;;;26.00;58.70;;;;;;5035545;28;20501;-93
2021/05/31 13:18:49;;;;;;;7.90;7.13;;;25.80;55.20;;;;;;5053435;28;20779;-94